createdAt,value
2022-09-28T00:03:54.802Z,7.18
2022-09-28T00:06:24.755Z,7.17
2022-09-28T00:08:52.484Z,7.16
2022-09-28T00:11:21.571Z,7.17
2022-09-28T00:13:56.780Z,7.15
2022-09-28T00:16:28.080Z,7.13
2022-09-28T00:18:55.811Z,7.15
2022-09-28T00:21:25.717Z,7.16
2022-09-28T00:24:14.611Z,7.15
2022-09-28T00:27:01.607Z,7.15
2022-09-28T00:29:35.019Z,7.15
2022-09-28T00:32:07.663Z,7.14
2022-09-28T00:34:38.307Z,7.14
2022-09-28T00:37:12.619Z,7.13
2022-09-28T00:39:41.691Z,7.13
2022-09-28T00:42:23.759Z,7.13
2022-09-28T00:44:56.341Z,7.13
2022-09-28T00:50:23.794Z,7.12
2022-09-28T00:53:07.252Z,7.13
2022-09-28T00:56:23.855Z,7.13
2022-09-28T00:58:57.755Z,7.12
2022-09-28T01:01:25.794Z,7.11
2022-09-28T01:03:56.313Z,7.12
2022-09-28T01:06:28.507Z,7.11
2022-09-28T01:08:59.689Z,7.11
2022-09-28T01:11:28.113Z,7.11
2022-09-28T01:13:58.128Z,7.12
2022-09-28T01:17:05.177Z,7.11
2022-09-28T01:22:57.342Z,7.11
2022-09-28T01:25:40.431Z,7.10
2022-09-28T01:28:19.543Z,7.10
2022-09-28T01:30:59.768Z,7.09
2022-09-28T01:33:32.868Z,7.09
2022-09-28T01:36:08.960Z,7.09
2022-09-28T01:38:44.882Z,7.08
2022-09-28T01:41:13.878Z,7.09
2022-09-28T01:43:47.472Z,7.09
2022-09-28T01:46:20.680Z,7.09
2022-09-28T01:48:58.885Z,7.09
2022-09-28T01:51:40.059Z,7.10
2022-09-28T01:54:13.822Z,7.10
2022-09-28T01:57:09.079Z,7.08
2022-09-28T01:59:44.504Z,7.09
2022-09-28T02:02:17.137Z,7.08
2022-09-28T02:04:54.499Z,7.08
2022-09-28T02:07:29.025Z,7.08
2022-09-28T02:10:03.475Z,7.08
2022-09-28T02:12:38.020Z,7.08
2022-09-28T02:15:15.414Z,7.08
2022-09-28T02:17:45.487Z,7.08
2022-09-28T02:20:17.238Z,7.08
2022-09-28T02:22:49.708Z,7.07
2022-09-28T02:28:04.984Z,7.06
2022-09-28T02:30:36.590Z,7.08
2022-09-28T02:33:19.509Z,7.07
2022-09-28T02:35:48.838Z,7.07
2022-09-28T02:38:18.057Z,7.07
2022-09-28T02:41:01.976Z,7.06
2022-09-28T02:43:46.249Z,7.04
2022-09-28T02:52:19.516Z,7.07
2022-09-28T03:03:12.859Z,7.04
2022-09-28T03:08:49.361Z,7.04
2022-09-28T03:11:23.324Z,7.04
2022-09-28T03:13:52.507Z,7.05
2022-09-28T03:16:22.844Z,7.04
2022-09-28T03:18:50.346Z,7.04
2022-09-28T03:21:17.788Z,7.04
2022-09-28T03:23:45.315Z,7.04
2022-09-28T03:26:13.359Z,7.04
2022-09-28T03:28:41.026Z,7.05
2022-09-28T03:31:12.234Z,7.07
2022-09-28T03:33:40.021Z,7.07
2022-09-28T03:36:09.774Z,7.07
2022-09-28T03:38:38.964Z,7.07
2022-09-28T03:41:08.175Z,7.07
2022-09-28T03:43:38.024Z,7.08
2022-09-28T03:46:05.874Z,7.07
2022-09-28T03:48:40.912Z,7.08
2022-09-28T03:51:11.305Z,7.08
2022-09-28T03:53:40.380Z,7.08
2022-09-28T03:56:12.566Z,7.08
2022-09-28T03:58:40.680Z,7.09
2022-09-28T04:01:16.647Z,7.08
2022-09-28T04:03:46.890Z,7.08
2022-09-28T04:06:15.180Z,7.09
2022-09-28T04:08:43.643Z,7.09
2022-09-28T04:11:11.991Z,7.09
2022-09-28T04:13:39.532Z,7.10
2022-09-28T04:16:11.736Z,7.12
2022-09-28T04:18:42.704Z,7.13
2022-09-28T04:21:17.214Z,7.13
2022-09-28T04:24:04.749Z,7.17
2022-09-28T04:26:32.392Z,7.18
2022-09-28T04:29:19.963Z,7.19
2022-09-28T04:31:53.153Z,7.21
2022-09-28T04:34:24.052Z,7.22
2022-09-28T04:36:51.530Z,7.22
2022-09-28T04:39:20.157Z,7.24
2022-09-28T04:41:50.965Z,7.27
2022-09-28T04:44:18.481Z,7.29
2022-09-28T04:46:47.659Z,7.31
2022-09-28T04:49:37.323Z,7.32
2022-09-28T04:52:08.691Z,7.34
2022-09-28T04:54:36.501Z,7.35
2022-09-28T04:57:05.275Z,7.36
2022-09-28T04:59:33.162Z,7.38
2022-09-28T05:02:01.073Z,7.38
2022-09-28T05:04:48.293Z,7.37
2022-09-28T05:07:35.847Z,7.39
2022-09-28T05:10:06.124Z,7.41
2022-09-28T05:12:34.141Z,7.41
2022-09-28T05:15:01.576Z,7.43
2022-09-28T05:17:30.316Z,7.45
2022-09-28T05:20:06.390Z,7.46
2022-09-28T05:22:34.460Z,7.47
2022-09-28T05:25:03.168Z,7.47
2022-09-28T05:27:38.897Z,7.48
2022-09-28T05:30:17.333Z,7.48
2022-09-28T05:33:05.477Z,7.50
2022-09-28T05:35:42.231Z,7.50
2022-09-28T05:38:09.684Z,7.52
2022-09-28T05:40:37.177Z,7.52
2022-09-28T05:43:04.972Z,7.54
2022-09-28T05:45:33.320Z,7.56
2022-09-28T05:48:00.922Z,7.57
2022-09-28T05:50:28.333Z,7.59
2022-09-28T05:53:11.654Z,7.62
2022-09-28T05:55:40.186Z,7.63
2022-09-28T05:58:08.862Z,7.65
2022-09-28T06:00:36.766Z,7.63
2022-09-28T06:03:09.186Z,7.66
2022-09-28T06:05:39.651Z,7.68
2022-09-28T06:08:10.614Z,7.70
2022-09-28T06:10:43.387Z,7.71
2022-09-28T06:13:12.264Z,7.72
2022-09-28T06:15:42.836Z,7.75
2022-09-28T06:18:33.501Z,7.77
2022-09-28T06:21:14.817Z,7.81
2022-09-28T06:23:48.940Z,7.83
2022-09-28T06:26:18.396Z,7.84
2022-09-28T06:28:46.927Z,7.85
2022-09-28T06:31:14.329Z,7.87
2022-09-28T06:33:46.452Z,7.89
2022-09-28T06:36:14.046Z,7.90
2022-09-28T06:38:42.095Z,7.91
2022-09-28T06:41:11.155Z,7.94
2022-09-28T06:43:40.687Z,7.97
2022-09-28T06:46:27.916Z,8.02
2022-09-28T06:49:09.823Z,8.07
2022-09-28T06:51:57.570Z,8.12
2022-09-28T06:54:44.704Z,8.12
2022-09-28T06:57:31.829Z,8.15
2022-09-28T06:59:59.808Z,8.18
2022-09-28T07:02:27.098Z,8.21
2022-09-28T07:05:14.068Z,8.26
2022-09-28T07:08:02.258Z,8.30
2022-09-28T07:10:56.464Z,8.34
2022-09-28T07:13:51.030Z,8.37
2022-09-28T07:16:26.545Z,8.41
2022-09-28T07:18:57.094Z,8.41
2022-09-28T07:21:29.943Z,8.44
2022-09-28T07:24:01.065Z,8.48
2022-09-28T07:26:48.254Z,8.52
2022-09-28T07:29:27.186Z,8.57
2022-09-28T07:32:08.670Z,8.66
2022-09-28T07:34:44.828Z,8.71
2022-09-28T07:37:19.122Z,8.73
2022-09-28T07:40:07.600Z,8.76
2022-09-28T07:42:38.618Z,8.76
2022-09-28T07:45:07.299Z,8.72
2022-09-28T07:47:35.340Z,8.72
2022-09-28T07:50:22.957Z,8.73
2022-09-28T07:52:58.139Z,8.78
2022-09-28T07:55:32.214Z,8.81
2022-09-28T07:58:09.400Z,8.85
2022-09-28T08:00:54.456Z,8.86
2022-09-28T08:03:23.148Z,8.88
2022-09-28T08:05:50.512Z,8.92
2022-09-28T08:08:18.816Z,8.95
2022-09-28T08:10:48.388Z,8.95
2022-09-28T08:13:35.498Z,8.98
2022-09-28T08:16:22.745Z,9.00
2022-09-28T08:18:59.169Z,9.01
2022-09-28T08:21:46.389Z,9.05
2022-09-28T08:24:15.803Z,9.12
2022-09-28T08:26:44.411Z,9.19
2022-09-28T08:29:15.581Z,9.18
2022-09-28T08:32:01.379Z,9.22
2022-09-28T08:34:49.012Z,9.25
2022-09-28T08:37:36.240Z,9.28
2022-09-28T08:40:26.150Z,9.23
2022-09-28T08:46:23.886Z,9.24
2022-09-28T08:54:44.598Z,9.29
2022-09-28T08:57:25.094Z,9.29
2022-09-28T08:59:57.105Z,9.29
2022-09-28T09:02:33.930Z,9.24
2022-09-28T09:05:19.364Z,9.25
2022-09-28T09:10:52.457Z,9.23
2022-09-28T09:14:09.200Z,9.24
2022-09-28T09:17:03.963Z,9.29
2022-09-28T09:20:12.695Z,9.34
2022-09-28T09:25:49.256Z,9.50
2022-09-28T09:28:56.537Z,9.53
2022-09-28T09:32:11.225Z,9.53
2022-09-28T09:38:04.568Z,9.61
2022-09-28T09:49:26.366Z,9.50
2022-09-28T09:55:17.213Z,9.51
2022-09-28T09:58:00.226Z,9.52
2022-09-28T10:00:35.412Z,9.54
2022-09-28T10:03:31.700Z,9.58
2022-09-28T10:06:16.658Z,9.68
2022-09-28T10:08:50.365Z,9.68
2022-09-28T10:11:27.513Z,9.74
2022-09-28T10:13:58.014Z,9.78
2022-09-28T10:16:48.751Z,9.71
2022-09-28T10:19:35.095Z,9.68
2022-09-28T10:22:25.586Z,9.69
2022-09-28T10:24:57.705Z,9.71
2022-09-28T10:27:36.167Z,9.70
2022-09-28T10:30:17.346Z,9.69
2022-09-28T10:32:47.886Z,9.65
2022-09-28T10:35:43.606Z,9.67
2022-09-28T10:40:56.628Z,9.81
2022-09-28T10:46:12.661Z,9.98
2022-09-28T10:54:25.977Z,10.05
2022-09-28T10:56:56.008Z,10.02
2022-09-28T11:05:05.860Z,10.07
2022-09-28T11:07:48.331Z,10.09
2022-09-28T11:10:25.372Z,10.08
2022-09-28T11:12:57.581Z,10.05
2022-09-28T11:15:30.029Z,10.02
2022-09-28T11:18:22.042Z,10.05
2022-09-28T11:20:50.167Z,10.03
2022-09-28T11:23:30.340Z,10.05
2022-09-28T11:26:07.587Z,10.02
2022-09-28T11:28:37.773Z,9.97
2022-09-28T11:31:12.266Z,9.95
2022-09-28T11:33:50.797Z,9.92
2022-09-28T11:37:01.969Z,9.88
2022-09-28T11:48:04.151Z,9.85
2022-09-28T11:50:45.668Z,9.83
2022-09-28T11:56:08.844Z,9.89
2022-09-28T11:58:46.789Z,9.88
2022-09-28T12:04:02.905Z,9.89
2022-09-28T12:06:41.002Z,9.89
2022-09-28T12:09:18.572Z,9.90
2022-09-28T12:12:03.710Z,9.89
2022-09-28T12:14:42.883Z,9.85
2022-09-28T12:17:34.909Z,9.82
2022-09-28T12:25:37.196Z,9.76
2022-09-28T12:28:13.682Z,9.76
2022-09-28T12:30:44.181Z,9.77
2022-09-28T12:33:15.600Z,9.81
2022-09-28T13:00:26.508Z,9.74
2022-09-28T13:03:32.789Z,9.82
2022-09-28T13:17:21.887Z,9.74
2022-09-28T13:25:26.336Z,9.73
2022-09-28T13:28:02.503Z,9.74
2022-09-28T13:30:32.886Z,9.78
2022-09-28T13:33:03.024Z,9.82
2022-09-28T13:35:31.227Z,9.85
2022-09-28T13:41:11.218Z,9.92
2022-09-28T13:44:11.050Z,9.91
2022-09-28T13:47:20.956Z,9.86
2022-09-28T13:55:32.810Z,9.84
2022-09-28T13:58:05.975Z,9.81
2022-09-28T14:03:34.159Z,9.79
2022-09-28T14:12:11.454Z,9.73
2022-09-28T14:14:50.111Z,9.73
2022-09-28T14:20:13.198Z,9.67
2022-09-28T14:25:41.336Z,9.59
2022-09-28T14:30:51.666Z,9.59
2022-09-28T14:36:04.655Z,9.53
2022-09-28T14:38:58.277Z,9.48
2022-09-28T14:41:34.770Z,9.49
2022-09-28T14:44:08.341Z,9.49
2022-09-28T14:46:39.124Z,9.43
2022-09-28T14:49:47.816Z,9.41
2022-09-28T14:52:19.877Z,9.38
2022-09-28T14:54:54.657Z,9.32
2022-09-28T14:57:26.438Z,9.30
2022-09-28T14:59:59.753Z,9.27
2022-09-28T15:02:32.744Z,9.26
2022-09-28T15:05:14.637Z,9.22
2022-09-28T15:07:48.224Z,9.21
2022-09-28T15:10:32.344Z,9.20
2022-09-28T15:13:03.146Z,9.20
2022-09-28T15:15:34.896Z,9.18
2022-09-28T15:20:49.691Z,9.17
2022-09-28T15:23:36.791Z,9.12
2022-09-28T15:26:07.415Z,9.08
2022-09-28T15:28:36.834Z,9.05
2022-09-28T15:31:05.720Z,9.03
2022-09-28T15:33:55.075Z,9.00
2022-09-28T15:36:26.737Z,8.98
2022-09-28T15:38:56.232Z,8.97
2022-09-28T15:41:25.292Z,8.93
2022-09-28T15:46:52.311Z,8.94
2022-09-28T15:49:39.185Z,8.95
2022-09-28T15:52:08.616Z,8.93
2022-09-28T15:54:44.565Z,8.90
2022-09-28T16:00:28.038Z,8.84
2022-09-28T16:05:54.594Z,8.75
2022-09-28T16:08:45.109Z,8.75
2022-09-28T16:11:30.415Z,8.72
2022-09-28T16:14:02.915Z,8.67
2022-09-28T16:16:34.387Z,8.64
2022-09-28T16:19:03.214Z,8.63
2022-09-28T16:24:23.342Z,8.60
2022-09-28T16:26:58.698Z,8.58
2022-09-28T16:29:45.289Z,8.55
2022-09-28T16:32:35.961Z,8.53
2022-09-28T16:37:47.448Z,8.52
2022-09-28T16:40:15.182Z,8.51
2022-09-28T16:42:48.838Z,8.50
2022-09-28T16:45:23.555Z,8.45
2022-09-28T16:47:53.170Z,8.42
2022-09-28T16:50:22.328Z,8.40
2022-09-28T16:53:18.188Z,8.35
2022-09-28T16:55:48.619Z,8.29
2022-09-28T16:58:16.421Z,8.26
2022-09-28T17:00:43.887Z,8.24
2022-09-28T17:03:17.609Z,8.24
2022-09-28T17:05:46.562Z,8.22
2022-09-28T17:08:17.749Z,8.19
2022-09-28T17:13:31.721Z,8.15
2022-09-28T17:16:00.527Z,8.13
2022-09-28T17:18:28.225Z,8.12
2022-09-28T17:20:57.493Z,8.09
2022-09-28T17:23:24.967Z,8.07
2022-09-28T17:25:54.817Z,8.05
2022-09-28T17:28:26.205Z,8.00
2022-09-28T17:30:54.410Z,7.96
2022-09-28T17:33:21.978Z,7.92
2022-09-28T17:35:52.906Z,7.91
2022-09-28T17:38:20.264Z,7.87
2022-09-28T17:40:48.459Z,7.83
2022-09-28T17:43:15.979Z,7.80
2022-09-28T17:45:46.943Z,7.77
2022-09-28T17:48:17.977Z,7.74
2022-09-28T17:50:47.792Z,7.73
2022-09-28T17:53:15.709Z,7.69
2022-09-28T17:55:43.489Z,7.68
2022-09-28T18:00:52.593Z,7.69
2022-09-28T18:03:22.524Z,7.68
2022-09-28T18:05:58.455Z,7.67
2022-09-28T18:08:26.012Z,7.65
2022-09-28T18:10:54.982Z,7.61
2022-09-28T18:13:22.438Z,7.61
2022-09-28T18:15:53.157Z,7.58
2022-09-28T18:18:21.618Z,7.58
2022-09-28T18:20:49.120Z,7.58
2022-09-28T18:23:16.916Z,7.57
2022-09-28T18:25:45.885Z,7.58
2022-09-28T18:28:14.099Z,7.50
2022-09-28T18:30:44.309Z,7.47
2022-09-28T18:33:13.958Z,7.46
2022-09-28T18:35:41.786Z,7.42
2022-09-28T18:38:09.225Z,7.38
2022-09-28T18:40:36.986Z,7.40
2022-09-28T18:43:04.488Z,7.43
2022-09-28T18:45:31.925Z,7.45
2022-09-28T18:47:59.986Z,7.47
2022-09-28T18:50:27.389Z,7.47
2022-09-28T18:52:54.868Z,7.46
2022-09-28T18:55:22.402Z,7.48
2022-09-28T18:57:50.080Z,7.48
2022-09-28T19:00:17.746Z,7.48
2022-09-28T19:02:45.286Z,7.45
2022-09-28T19:05:12.843Z,7.47
2022-09-28T19:07:40.213Z,7.47
2022-09-28T19:10:08.319Z,7.48
2022-09-28T19:12:35.685Z,7.50
2022-09-28T19:15:03.177Z,7.54
2022-09-28T19:17:30.647Z,7.55
2022-09-28T19:19:58.182Z,7.56
2022-09-28T19:22:25.580Z,7.58
2022-09-28T19:24:53.010Z,7.57
2022-09-28T19:27:20.410Z,7.57
2022-09-28T19:29:47.990Z,7.59
2022-09-28T19:32:15.751Z,7.59
2022-09-28T19:34:43.166Z,7.59
2022-09-28T19:37:10.525Z,7.60
2022-09-28T19:39:37.856Z,7.60
2022-09-28T19:42:05.777Z,7.62
2022-09-28T19:44:35.917Z,7.65
2022-09-28T19:47:07.697Z,7.65
2022-09-28T19:49:37.710Z,7.68
2022-09-28T19:52:17.336Z,7.68
2022-09-28T19:54:52.351Z,7.66
2022-09-28T19:57:19.958Z,7.68
2022-09-28T19:59:52.038Z,7.69
2022-09-28T20:02:20.824Z,7.71
2022-09-28T20:04:48.473Z,7.71
2022-09-28T20:07:16.365Z,7.70
2022-09-28T20:09:43.739Z,7.69
2022-09-28T20:12:11.551Z,7.69
2022-09-28T20:14:40.391Z,7.69
2022-09-28T20:17:08.515Z,7.70
2022-09-28T20:19:36.351Z,7.69
2022-09-28T20:22:04.088Z,7.70
2022-09-28T20:24:31.818Z,7.72
2022-09-28T20:26:59.571Z,7.73
2022-09-28T20:29:27.021Z,7.73
2022-09-28T20:31:54.444Z,7.73
2022-09-28T20:34:21.990Z,7.73
2022-09-28T20:36:49.387Z,7.72
2022-09-28T20:39:16.999Z,7.70
2022-09-28T20:41:46.339Z,7.68
2022-09-28T20:44:13.923Z,7.69
2022-09-28T20:46:41.425Z,7.70
2022-09-28T20:49:08.789Z,7.72
2022-09-28T20:51:36.141Z,7.72
2022-09-28T20:54:03.505Z,7.73
2022-09-28T20:56:41.855Z,7.73
2022-09-28T20:59:12.129Z,7.74
2022-09-28T21:01:40.575Z,7.73
2022-09-28T21:04:09.378Z,7.72
2022-09-28T21:06:38.999Z,7.71
2022-09-28T21:09:07.899Z,7.72
2022-09-28T21:11:35.986Z,7.70
2022-09-28T21:14:05.939Z,7.68
2022-09-28T21:16:34.797Z,7.67
2022-09-28T21:19:02.224Z,7.67
2022-09-28T21:21:30.383Z,7.67
2022-09-28T21:23:58.357Z,7.66
2022-09-28T21:26:27.973Z,7.67
2022-09-28T21:28:58.550Z,7.66
2022-09-28T21:31:29.326Z,7.64
2022-09-28T21:33:58.258Z,7.64
2022-09-28T21:36:26.216Z,7.65
2022-09-28T21:38:56.310Z,7.66
2022-09-28T21:41:24.950Z,7.67
2022-09-28T21:43:52.633Z,7.66
2022-09-28T21:46:20.160Z,7.66
2022-09-28T21:48:51.951Z,7.69
2022-09-28T21:51:19.739Z,7.69
2022-09-28T21:53:48.713Z,7.69
2022-09-28T21:56:16.074Z,7.64
2022-09-28T21:58:43.400Z,7.62
2022-09-28T22:01:18.245Z,7.60
2022-09-28T22:03:49.349Z,7.63
2022-09-28T22:06:22.175Z,7.65
2022-09-28T22:08:50.087Z,7.66
2022-09-28T22:11:21.480Z,7.65
2022-09-28T22:13:51.344Z,7.63
2022-09-28T22:16:22.469Z,7.61
2022-09-28T22:18:50.801Z,7.65
2022-09-28T22:21:20.734Z,7.65
2022-09-28T22:23:48.634Z,7.65
2022-09-28T22:26:19.750Z,7.64
2022-09-28T22:28:49.772Z,7.61
2022-09-28T22:31:18.494Z,7.61
2022-09-28T22:33:45.798Z,7.62
2022-09-28T22:36:14.400Z,7.64
2022-09-28T22:38:41.603Z,7.64
2022-09-28T22:41:09.978Z,7.63
2022-09-28T22:43:38.165Z,7.63
2022-09-28T22:46:08.729Z,7.63
2022-09-28T22:48:36.454Z,7.62
2022-09-28T22:51:06.427Z,7.60
2022-09-28T22:53:34.878Z,7.58
2022-09-28T22:56:05.715Z,7.57
2022-09-28T22:58:34.292Z,7.56
2022-09-28T23:03:51.064Z,7.60
2022-09-28T23:06:21.242Z,7.60
2022-09-28T23:08:50.690Z,7.61
2022-09-28T23:11:18.488Z,7.60
2022-09-28T23:13:55.928Z,7.61
2022-09-28T23:16:25.813Z,7.61
2022-09-28T23:18:55.311Z,7.59
2022-09-28T23:21:25.443Z,7.57
2022-09-28T23:23:55.876Z,7.55
2022-09-28T23:26:26.914Z,7.54
2022-09-28T23:28:54.856Z,7.52
2022-09-28T23:31:25.289Z,7.52
2022-09-28T23:33:57.624Z,7.48
2022-09-28T23:36:25.628Z,7.51
2022-09-28T23:38:53.273Z,7.54
2022-09-28T23:41:20.611Z,7.55
2022-09-28T23:43:48.153Z,7.54
2022-09-28T23:46:20.435Z,7.53
2022-09-28T23:48:48.048Z,7.54
2022-09-28T23:51:15.402Z,7.55
2022-09-28T23:53:43.523Z,7.57
2022-09-28T23:56:11.584Z,7.59
2022-09-28T23:58:38.901Z,7.60
